Time;durP1;ratioP1;P1;durP2;ratioP2;P2;SDS_P1;SDS_P2;PMS_P1;PMS_P2;Temp;Humidity;BMP_temperature;BMP_pressure;BME280_temperature;BME280_humidity;BME280_pressure;Samples;Min_cycle;Max_cycle;Signal;HPM_P1;HPM_P2
2022/09/18 00:02:22;;;;;;;10.80;3.67;;;;;;;;;;5032593;28;20469;-67
2022/09/18 00:04:49;;;;;;;2.70;2.27;;;;;;;;;;5034708;28;20192;-67
2022/09/18 00:07:17;;;;;;;4.93;1.92;;;;;;;;;;5033160;28;20588;-68
2022/09/18 00:09:44;;;;;;;6.30;2.40;;;;;;;;;;5016709;28;20196;-67
2022/09/18 00:12:11;;;;;;;6.10;2.40;;;;;;;;;;5013969;28;20455;-68
2022/09/18 00:14:38;;;;;;;7.33;2.43;;;;;;;;;;5013982;28;20445;-67
2022/09/18 00:17:07;;;;;;;7.90;2.30;;;;;;;;;;5013798;28;20453;-67
2022/09/18 00:19:34;;;;;;;10.33;2.77;;;;;;;;;;5014534;28;20541;-67
2022/09/18 00:22:01;;;;;;;9.30;2.70;;;;;;;;;;5014313;28;20490;-67
2022/09/18 00:24:29;;;;;;;5.17;2.50;;;;;;;;;;5014342;28;20439;-67
2022/09/18 00:26:56;;;;;;;7.25;3.40;;;;;;;;;;5014232;28;20435;-67
2022/09/18 00:29:23;;;;;;;7.43;3.10;;;;;;;;;;5014314;28;20202;-67
2022/09/18 00:31:51;;;;;;;7.00;2.67;;;;;;;;;;5013912;28;20470;-67
2022/09/18 00:34:19;;;;;;;7.72;2.92;;;;;;;;;;5014158;28;20443;-67
2022/09/18 00:36:47;;;;;;;5.60;2.90;;;;;;;;;;5013629;28;20737;-67
2022/09/18 00:39:14;;;;;;;6.32;2.50;;;;;;;;;;5014518;28;20508;-67
2022/09/18 00:41:43;;;;;;;10.45;3.00;;;;;;;;;;5014360;28;20216;-67
2022/09/18 00:44:43;;;;;;;6.00;3.00;;;;;;;;;;5014627;28;20200;-67
2022/09/18 00:47:27;;;;;;;7.47;3.10;;;;;;;;;;4953707;29;20438;-67
2022/09/18 00:49:59;;;;;;;5.30;2.80;;;;;;;;;;4953863;29;20458;-67
2022/09/18 00:52:28;;;;;;;5.50;2.40;;;;;;;;;;4989381;28;20443;-67
2022/09/18 00:54:56;;;;;;;3.10;2.80;;;;;;;;;;5014628;28;20479;-67
2022/09/18 00:57:25;;;;;;;5.40;2.60;;;;;;;;;;5013576;28;20813;-67
2022/09/18 00:59:53;;;;;;;7.40;3.60;;;;;;;;;;5013755;28;20529;-67
2022/09/18 01:02:20;;;;;;;2.20;2.00;;;;;;;;;;5029458;28;20542;-67
2022/09/18 01:04:49;;;;;;;10.87;2.87;;;;;;;;;;5033718;28;20473;-67
2022/09/18 01:07:24;;;;;;;4.67;2.50;;;;;;;;;;5032025;28;20813;-67
2022/09/18 01:09:59;;;;;;;4.23;2.33;;;;;;;;;;5032180;28;20441;-67
2022/09/18 01:12:31;;;;;;;7.60;2.45;;;;;;;;;;5033797;28;20853;-67
2022/09/18 01:15:01;;;;;;;6.60;2.20;;;;;;;;;;5033312;28;20198;-67
2022/09/18 01:17:33;;;;;;;5.57;3.00;;;;;;;;;;5033293;28;20183;-67
2022/09/18 01:20:17;;;;;;;5.27;2.43;;;;;;;;;;5033313;28;20191;-66
2022/09/18 01:22:53;;;;;;;7.13;2.90;;;;;;;;;;5033729;28;20438;-66
2022/09/18 01:25:23;;;;;;;7.80;2.63;;;;;;;;;;5033514;28;20197;-66
2022/09/18 01:27:57;;;;;;;3.57;2.73;;;;;;;;;;5033539;28;20191;-67
2022/09/18 01:30:24;;;;;;;6.22;2.58;;;;;;;;;;5033563;28;20782;-67
2022/09/18 01:32:56;;;;;;;6.30;3.30;;;;;;;;;;5033398;28;20203;-66
2022/09/18 01:35:26;;;;;;;7.18;2.78;;;;;;;;;;5033965;28;20549;-66
2022/09/18 01:37:56;;;;;;;5.05;2.90;;;;;;;;;;5033702;28;20206;-67
2022/09/18 01:40:25;;;;;;;9.55;3.00;;;;;;;;;;5032929;28;20198;-67
2022/09/18 01:42:56;;;;;;;8.15;3.15;;;;;;;;;;5033568;28;20659;-67
2022/09/18 01:45:25;;;;;;;9.25;3.30;;;;;;;;;;5033797;28;20191;-67
2022/09/18 01:47:54;;;;;;;6.80;3.40;;;;;;;;;;5033004;28;20675;-66
2022/09/18 01:50:22;;;;;;;16.33;3.00;;;;;;;;;;5032931;28;20651;-66
2022/09/18 01:52:52;;;;;;;8.77;3.08;;;;;;;;;;5032885;28;20678;-67
2022/09/18 01:55:22;;;;;;;6.90;3.03;;;;;;;;;;5033030;28;20187;-67
2022/09/18 01:57:51;;;;;;;13.38;3.95;;;;;;;;;;5032789;28;20199;-67
2022/09/18 02:00:20;;;;;;;6.05;2.88;;;;;;;;;;5031551;28;20316;-67
2022/09/18 02:02:51;;;;;;;4.13;2.40;;;;;;;;;;5032417;28;20194;-67
2022/09/18 02:05:21;;;;;;;7.05;2.80;;;;;;;;;;5033228;28;20197;-67
2022/09/18 02:07:50;;;;;;;6.90;2.47;;;;;;;;;;5031218;28;20529;-67
2022/09/18 02:10:18;;;;;;;9.30;2.85;;;;;;;;;;5017320;28;20271;-67
2022/09/18 02:12:46;;;;;;;5.00;2.47;;;;;;;;;;5017159;28;20540;-68
2022/09/18 02:15:14;;;;;;;4.45;2.30;;;;;;;;;;5017093;28;20200;-67
2022/09/18 02:17:46;;;;;;;6.63;2.80;;;;;;;;;;5017039;28;20203;-67
2022/09/18 02:20:18;;;;;;;4.38;2.55;;;;;;;;;;5016852;28;20187;-67
2022/09/18 02:22:46;;;;;;;8.40;2.50;;;;;;;;;;5017059;28;20298;-67
2022/09/18 02:25:15;;;;;;;5.70;2.50;;;;;;;;;;5016725;28;20645;-66
2022/09/18 02:27:43;;;;;;;4.22;2.58;;;;;;;;;;5016873;28;20808;-67
2022/09/18 02:30:10;;;;;;;5.88;2.65;;;;;;;;;;5016424;28;20650;-67
2022/09/18 02:32:38;;;;;;;9.07;2.67;;;;;;;;;;5017032;28;20249;-67
2022/09/18 02:35:09;;;;;;;9.98;2.53;;;;;;;;;;5016809;28;20212;-67
2022/09/18 02:37:40;;;;;;;5.63;2.65;;;;;;;;;;5016461;28;20200;-67
2022/09/18 02:40:23;;;;;;;10.02;3.58;;;;;;;;;;5016404;28;20185;-67
2022/09/18 02:42:53;;;;;;;8.18;2.65;;;;;;;;;;5016771;28;20212;-67
2022/09/18 02:45:27;;;;;;;8.93;2.67;;;;;;;;;;5016686;28;20205;-67
2022/09/18 02:48:01;;;;;;;3.10;2.30;;;;;;;;;;5016705;28;20791;-67
2022/09/18 02:50:33;;;;;;;6.43;2.50;;;;;;;;;;5016296;28;20928;-67
2022/09/18 02:53:04;;;;;;;3.88;1.90;;;;;;;;;;5016852;28;20439;-67
2022/09/18 02:55:37;;;;;;;10.95;2.65;;;;;;;;;;5016178;28;20660;-67
2022/09/18 02:58:06;;;;;;;12.68;2.63;;;;;;;;;;5016686;28;20191;-67
2022/09/18 03:00:34;;;;;;;4.40;2.42;;;;;;;;;;5018167;28;20591;-67
2022/09/18 03:03:02;;;;;;;7.95;2.40;;;;;;;;;;5035529;28;20551;-67
2022/09/18 03:05:30;;;;;;;9.50;2.30;;;;;;;;;;5036006;28;20206;-67
2022/09/18 03:07:57;;;;;;;11.13;2.67;;;;;;;;;;5033988;28;20194;-67
2022/09/18 03:10:25;;;;;;;9.95;2.38;;;;;;;;;;5035905;28;20191;-67
2022/09/18 03:12:54;;;;;;;4.40;2.30;;;;;;;;;;5035897;28;20221;-66
2022/09/18 03:15:21;;;;;;;6.50;2.97;;;;;;;;;;5035417;28;20924;-67
2022/09/18 03:17:48;;;;;;;15.80;2.80;;;;;;;;;;5035556;28;20935;-66
2022/09/18 03:20:16;;;;;;;8.80;2.53;;;;;;;;;;5034693;28;20198;-66
2022/09/18 03:22:44;;;;;;;8.25;2.47;;;;;;;;;;5035674;28;20220;-66
2022/09/18 03:25:13;;;;;;;5.18;2.30;;;;;;;;;;5035625;28;20633;-67
2022/09/18 03:27:41;;;;;;;6.25;2.53;;;;;;;;;;5035267;28;20246;-67
2022/09/18 03:30:09;;;;;;;6.35;2.30;;;;;;;;;;5035666;28;20245;-67
2022/09/18 03:32:37;;;;;;;6.50;2.45;;;;;;;;;;5035656;28;20223;-67
2022/09/18 03:35:04;;;;;;;6.87;2.40;;;;;;;;;;5035712;28;20202;-67
2022/09/18 03:37:31;;;;;;;8.13;2.33;;;;;;;;;;5035521;28;20450;-65
2022/09/18 03:39:59;;;;;;;7.13;2.53;;;;;;;;;;5035328;28;20237;-67
2022/09/18 03:42:27;;;;;;;4.32;2.42;;;;;;;;;;5035275;28;20219;-67
2022/09/18 03:44:54;;;;;;;6.70;2.97;;;;;;;;;;5035119;28;20202;-68
2022/09/18 03:47:21;;;;;;;7.07;2.80;;;;;;;;;;5035575;28;20294;-68
2022/09/18 03:49:48;;;;;;;10.30;3.27;;;;;;;;;;5034827;28;20682;-67
2022/09/18 03:52:15;;;;;;;9.23;2.50;;;;;;;;;;5035532;28;20442;-67
2022/09/18 03:54:42;;;;;;;8.52;2.65;;;;;;;;;;5034986;28;20465;-67
2022/09/18 03:57:11;;;;;;;8.55;2.70;;;;;;;;;;5035019;28;20199;-67
2022/09/18 03:59:38;;;;;;;15.57;3.60;;;;;;;;;;5033672;28;20206;-68
2022/09/18 04:02:05;;;;;;;10.57;3.43;;;;;;;;;;5034731;28;20485;-67
2022/09/18 04:04:33;;;;;;;3.20;2.90;;;;;;;;;;5034197;28;20962;-67
2022/09/18 04:07:00;;;;;;;7.17;3.37;;;;;;;;;;5034542;28;20227;-67
2022/09/18 04:09:27;;;;;;;4.00;2.57;;;;;;;;;;5034381;28;20439;-68
2022/09/18 04:11:54;;;;;;;6.40;3.65;;;;;;;;;;5034716;28;20445;-67
2022/09/18 04:14:23;;;;;;;9.30;4.30;;;;;;;;;;5034545;28;20207;-67
2022/09/18 04:16:50;;;;;;;14.43;3.80;;;;;;;;;;5034245;28;20199;-67
2022/09/18 04:19:18;;;;;;;6.78;4.20;;;;;;;;;;5034359;28;20222;-67
2022/09/18 04:21:45;;;;;;;9.60;4.40;;;;;;;;;;5034235;28;20222;-67
2022/09/18 04:24:16;;;;;;;8.30;3.47;;;;;;;;;;5034328;28;20537;-67
2022/09/18 04:26:43;;;;;;;13.30;4.88;;;;;;;;;;5034037;28;20928;-67
2022/09/18 04:29:10;;;;;;;8.53;5.77;;;;;;;;;;5034354;28;20210;-67
2022/09/18 04:31:39;;;;;;;13.10;4.57;;;;;;;;;;5013629;28;20479;-67
2022/09/18 04:34:06;;;;;;;10.98;4.97;;;;;;;;;;5014325;28;20944;-67
2022/09/18 04:36:33;;;;;;;5.13;4.63;;;;;;;;;;5014251;28;20282;-67
2022/09/18 04:39:01;;;;;;;8.87;5.20;;;;;;;;;;5014555;28;20449;-68
2022/09/18 04:41:28;;;;;;;8.02;4.88;;;;;;;;;;5013766;28;21015;-67
2022/09/18 04:43:55;;;;;;;10.87;4.57;;;;;;;;;;5014351;28;20201;-67
2022/09/18 04:46:22;;;;;;;9.07;5.00;;;;;;;;;;5014217;28;20443;-67
2022/09/18 04:48:52;;;;;;;13.10;4.60;;;;;;;;;;5014335;28;20461;-67
2022/09/18 04:51:19;;;;;;;14.73;5.30;;;;;;;;;;5031859;28;20725;-67
2022/09/18 04:53:46;;;;;;;7.93;4.90;;;;;;;;;;5033756;28;20445;-67
2022/09/18 04:56:14;;;;;;;13.30;5.87;;;;;;;;;;5033508;28;20454;-67
2022/09/18 04:58:41;;;;;;;13.93;4.87;;;;;;;;;;5034129;28;20457;-68
2022/09/18 05:01:08;;;;;;;9.77;4.90;;;;;;;;;;5033028;28;20454;-68
2022/09/18 05:03:35;;;;;;;9.70;5.80;;;;;;;;;;5033362;28;20708;-68
2022/09/18 05:06:04;;;;;;;9.67;5.40;;;;;;;;;;5033333;28;20452;-68
2022/09/18 05:08:33;;;;;;;11.67;5.47;;;;;;;;;;5033556;28;20951;-67
2022/09/18 05:11:01;;;;;;;7.10;5.43;;;;;;;;;;5033625;28;20828;-68
2022/09/18 05:13:28;;;;;;;11.80;5.70;;;;;;;;;;5033385;28;20940;-67
2022/09/18 05:15:55;;;;;;;11.57;5.43;;;;;;;;;;5033468;28;20200;-68
2022/09/18 05:18:22;;;;;;;10.97;4.87;;;;;;;;;;5033474;28;20443;-67
2022/09/18 05:20:50;;;;;;;12.27;5.00;;;;;;;;;;5032947;28;20903;-68
2022/09/18 05:23:19;;;;;;;7.63;4.70;;;;;;;;;;5033405;28;20478;-68
2022/09/18 05:25:46;;;;;;;9.27;5.17;;;;;;;;;;5033018;28;20460;-68
2022/09/18 05:28:14;;;;;;;5.50;4.73;;;;;;;;;;5033533;28;20517;-68
2022/09/18 05:30:42;;;;;;;6.07;4.30;;;;;;;;;;5032726;28;20968;-68
2022/09/18 05:33:10;;;;;;;5.13;3.40;;;;;;;;;;5033509;28;20466;-67
2022/09/18 05:35:38;;;;;;;6.07;4.25;;;;;;;;;;5033231;28;20446;-68
2022/09/18 05:38:06;;;;;;;8.07;4.10;;;;;;;;;;5033403;28;20338;-68
2022/09/18 05:40:36;;;;;;;13.30;3.70;;;;;;;;;;5032858;28;20450;-68
2022/09/18 05:43:04;;;;;;;5.63;3.20;;;;;;;;;;5032754;28;20472;-67
2022/09/18 05:45:31;;;;;;;8.80;4.03;;;;;;;;;;5033143;28;20507;-68
2022/09/18 05:47:59;;;;;;;7.53;3.40;;;;;;;;;;5033699;28;20788;-68
2022/09/18 05:50:27;;;;;;;4.90;2.93;;;;;;;;;;5032737;28;20442;-68
2022/09/18 05:53:01;;;;;;;11.57;4.73;;;;;;;;;;5032776;28;20446;-67
2022/09/18 05:55:28;;;;;;;7.53;4.00;;;;;;;;;;5033051;28;20460;-68
2022/09/18 05:57:57;;;;;;;2.40;2.20;;;;;;;;;;5033164;28;20438;-68
2022/09/18 06:00:25;;;;;;;6.70;2.57;;;;;;;;;;5032997;28;20811;-69
2022/09/18 06:02:53;;;;;;;7.27;3.00;;;;;;;;;;5032928;28;20490;-68
2022/09/18 06:05:20;;;;;;;7.37;3.10;;;;;;;;;;5032913;28;20446;-68
2022/09/18 06:07:47;;;;;;;8.87;2.80;;;;;;;;;;5032869;28;20449;-69
2022/09/18 06:10:14;;;;;;;4.80;2.80;;;;;;;;;;5032781;28;20446;-68
2022/09/18 06:12:41;;;;;;;3.37;2.30;;;;;;;;;;5033306;28;20787;-67
2022/09/18 06:15:11;;;;;;;11.67;4.40;;;;;;;;;;5032988;28;20435;-68
2022/09/18 06:17:38;;;;;;;5.43;2.60;;;;;;;;;;5032446;28;20525;-69
2022/09/18 06:20:07;;;;;;;3.37;2.50;;;;;;;;;;5032941;28;20458;-71
2022/09/18 06:22:34;;;;;;;9.60;4.05;;;;;;;;;;5032430;28;20478;-69
2022/09/18 06:25:01;;;;;;;7.23;2.83;;;;;;;;;;5031218;28;20207;-69
2022/09/18 06:27:28;;;;;;;5.63;2.73;;;;;;;;;;5032555;28;20450;-69
2022/09/18 06:29:55;;;;;;;8.00;2.67;;;;;;;;;;5032876;28;20449;-69
2022/09/18 06:32:24;;;;;;;2.80;2.60;;;;;;;;;;5032781;28;20477;-69
2022/09/18 06:34:51;;;;;;;3.85;2.78;;;;;;;;;;5033022;28;20446;-69
2022/09/18 06:37:19;;;;;;;7.22;3.15;;;;;;;;;;5032736;28;20195;-69
2022/09/18 06:39:46;;;;;;;4.10;3.70;;;;;;;;;;5032249;28;20662;-69
2022/09/18 06:42:13;;;;;;;7.25;4.70;;;;;;;;;;5032397;28;20484;-69
2022/09/18 06:44:40;;;;;;;5.33;3.30;;;;;;;;;;5032657;28;20287;-69
2022/09/18 06:47:08;;;;;;;5.93;4.10;;;;;;;;;;5032648;28;20438;-69
2022/09/18 06:49:38;;;;;;;8.03;2.87;;;;;;;;;;5032721;28;20454;-69
2022/09/18 06:52:05;;;;;;;6.67;3.10;;;;;;;;;;5032684;28;20442;-69
2022/09/18 06:54:32;;;;;;;13.00;3.40;;;;;;;;;;5032384;28;20445;-69
2022/09/18 06:57:00;;;;;;;9.03;3.67;;;;;;;;;;5035865;28;20445;-69
2022/09/18 06:59:27;;;;;;;6.80;3.50;;;;;;;;;;5036113;28;20438;-69
2022/09/18 07:01:54;;;;;;;8.70;3.03;;;;;;;;;;5035763;28;20466;-69
2022/09/18 07:04:21;;;;;;;8.63;2.80;;;;;;;;;;5035905;28;20453;-70
2022/09/18 07:06:50;;;;;;;5.73;2.87;;;;;;;;;;5035863;28;20463;-69
2022/09/18 07:09:18;;;;;;;7.47;3.27;;;;;;;;;;5035869;28;20477;-69
2022/09/18 07:11:45;;;;;;;10.20;4.23;;;;;;;;;;5035151;28;20446;-69
2022/09/18 07:14:12;;;;;;;7.43;3.67;;;;;;;;;;5033811;28;20959;-71
2022/09/18 07:16:41;;;;;;;11.10;3.60;;;;;;;;;;5035149;28;20466;-69
2022/09/18 07:19:09;;;;;;;7.00;3.10;;;;;;;;;;5035402;28;20442;-69
2022/09/18 07:21:37;;;;;;;7.33;3.03;;;;;;;;;;5035767;28;20453;-69
2022/09/18 07:24:05;;;;;;;3.70;3.27;;;;;;;;;;5035649;28;20486;-69
2022/09/18 07:26:33;;;;;;;7.27;3.77;;;;;;;;;;5033563;28;20454;-69
2022/09/18 07:29:00;;;;;;;7.10;3.60;;;;;;;;;;5035064;28;20449;-69
2022/09/18 07:31:27;;;;;;;7.90;2.97;;;;;;;;;;5034818;28;20474;-69
2022/09/18 07:33:55;;;;;;;6.47;3.23;;;;;;;;;;5035139;28;20954;-68
2022/09/18 07:36:22;;;;;;;8.00;3.17;;;;;;;;;;5035639;28;20450;-68
2022/09/18 07:38:51;;;;;;;4.10;2.70;;;;;;;;;;5034751;28;20448;-68
2022/09/18 07:41:20;;;;;;;8.60;2.67;;;;;;;;;;5035733;28;20440;-69
2022/09/18 07:43:51;;;;;;;6.00;2.60;;;;;;;;;;5034903;28;21016;-69
2022/09/18 07:46:19;;;;;;;3.07;2.13;;;;;;;;;;5034938;28;20433;-69
2022/09/18 07:48:46;;;;;;;4.37;3.00;;;;;;;;;;5034830;28;20794;-70
2022/09/18 07:51:13;;;;;;;4.17;2.53;;;;;;;;;;5035279;28;20796;-69
2022/09/18 07:53:41;;;;;;;7.37;2.70;;;;;;;;;;5035103;28;20446;-69
2022/09/18 07:56:08;;;;;;;5.17;2.53;;;;;;;;;;5034608;28;20526;-68
2022/09/18 07:58:40;;;;;;;5.10;2.80;;;;;;;;;;5034562;28;20529;-68
2022/09/18 08:01:07;;;;;;;5.97;2.40;;;;;;;;;;5035137;28;20572;-68
2022/09/18 08:03:36;;;;;;;9.13;2.43;;;;;;;;;;5034887;28;20485;-69
2022/09/18 08:06:03;;;;;;;3.67;2.07;;;;;;;;;;5034425;28;20458;-69
2022/09/18 08:08:30;;;;;;;8.13;2.57;;;;;;;;;;5034300;28;20464;-68
2022/09/18 08:10:58;;;;;;;5.57;2.50;;;;;;;;;;5034698;28;20791;-69
2022/09/18 08:13:25;;;;;;;4.97;2.80;;;;;;;;;;5034728;28;20473;-68
2022/09/18 08:15:53;;;;;;;6.27;2.33;;;;;;;;;;5034629;28;20438;-69
2022/09/18 08:18:21;;;;;;;3.40;2.33;;;;;;;;;;5033998;28;20451;-69
2022/09/18 08:20:48;;;;;;;7.70;3.10;;;;;;;;;;5034434;28;20461;-69
2022/09/18 08:23:16;;;;;;;7.30;2.47;;;;;;;;;;5034426;28;20569;-69
2022/09/18 08:25:45;;;;;;;2.50;2.10;;;;;;;;;;5034408;28;20450;-68
2022/09/18 08:28:12;;;;;;;8.20;2.87;;;;;;;;;;5034084;28;20450;-69
2022/09/18 08:30:40;;;;;;;4.33;2.10;;;;;;;;;;5034200;28;20508;-69
2022/09/18 08:33:09;;;;;;;8.83;3.77;;;;;;;;;;5034204;28;20449;-70
2022/09/18 08:35:36;;;;;;;3.90;2.63;;;;;;;;;;5034321;28;20539;-69
2022/09/18 08:38:03;;;;;;;8.80;3.60;;;;;;;;;;5034077;28;20438;-69
2022/09/18 08:40:39;;;;;;;3.40;2.40;;;;;;;;;;5034299;28;20525;-70
2022/09/18 08:43:09;;;;;;;9.83;2.80;;;;;;;;;;5033977;28;20470;-70
2022/09/18 08:45:42;;;;;;;9.60;2.90;;;;;;;;;;5034386;28;20525;-71
2022/09/18 08:48:14;;;;;;;3.83;2.50;;;;;;;;;;5033952;28;20435;-71
2022/09/18 08:50:43;;;;;;;8.80;2.60;;;;;;;;;;5034205;28;20500;-72
2022/09/18 08:53:14;;;;;;;6.80;2.47;;;;;;;;;;5033895;28;20450;-70
2022/09/18 08:55:43;;;;;;;7.50;2.90;;;;;;;;;;5034246;28;20450;-70
2022/09/18 08:58:24;;;;;;;3.60;2.70;;;;;;;;;;5033404;28;20525;-71
2022/09/18 09:00:57;;;;;;;5.43;2.70;;;;;;;;;;5033057;28;20532;-70
2022/09/18 09:03:39;;;;;;;3.47;2.37;;;;;;;;;;5033286;28;20474;-72
2022/09/18 09:06:13;;;;;;;3.60;1.90;;;;;;;;;;5034035;28;20453;-72
2022/09/18 09:08:57;;;;;;;3.93;2.30;;;;;;;;;;5033439;28;20429;-71
2022/09/18 09:11:35;;;;;;;5.13;2.00;;;;;;;;;;5033466;28;20535;-71
2022/09/18 09:14:12;;;;;;;4.77;1.60;;;;;;;;;;5033867;28;20441;-70
2022/09/18 09:16:49;;;;;;;4.57;1.80;;;;;;;;;;5033808;28;20430;-71
2022/09/18 09:19:32;;;;;;;1.60;1.50;;;;;;;;;;5033053;28;20433;-71
2022/09/18 09:22:06;;;;;;;4.60;1.47;;;;;;;;;;5033373;28;20439;-71
2022/09/18 09:24:34;;;;;;;1.90;1.63;;;;;;;;;;5033443;28;20470;-72
2022/09/18 09:27:07;;;;;;;3.47;1.90;;;;;;;;;;5033288;28;20442;-72
2022/09/18 09:29:36;;;;;;;3.57;1.53;;;;;;;;;;5033486;28;20238;-71
2022/09/18 09:32:10;;;;;;;2.00;1.37;;;;;;;;;;5033438;28;20483;-71
2022/09/18 09:34:43;;;;;;;3.00;1.70;;;;;;;;;;5033575;28;20431;-70
2022/09/18 09:37:16;;;;;;;2.58;1.90;;;;;;;;;;5034008;28;20434;-71
2022/09/18 09:39:49;;;;;;;3.87;2.00;;;;;;;;;;5033969;28;20196;-71
2022/09/18 09:42:24;;;;;;;3.35;1.67;;;;;;;;;;5033132;28;20480;-71
2022/09/18 09:44:54;;;;;;;6.20;1.70;;;;;;;;;;5033317;28;20568;-71
2022/09/18 09:47:30;;;;;;;4.43;1.80;;;;;;;;;;5033504;28;20430;-71
2022/09/18 09:50:16;;;;;;;3.70;1.37;;;;;;;;;;5033679;28;20191;-71
2022/09/18 09:52:46;;;;;;;2.47;1.40;;;;;;;;;;5033629;28;20927;-71
2022/09/18 09:55:22;;;;;;;1.60;1.50;;;;;;;;;;5033323;28;20469;-70
2022/09/18 09:57:52;;;;;;;1.83;1.67;;;;;;;;;;5033727;28;20230;-70
2022/09/18 10:00:20;;;;;;;2.93;1.50;;;;;;;;;;5033381;28;20456;-71
2022/09/18 10:02:57;;;;;;;2.90;1.80;;;;;;;;;;5033075;28;20438;-70
2022/09/18 10:05:29;;;;;;;1.75;1.45;;;;;;;;;;5033389;28;20533;-71
2022/09/18 10:08:01;;;;;;;1.77;1.40;;;;;;;;;;5033396;28;20681;-70
2022/09/18 10:10:31;;;;;;;2.08;1.67;;;;;;;;;;5033894;28;20854;-71
2022/09/18 10:13:02;;;;;;;1.80;1.50;;;;;;;;;;5033321;28;20193;-70
2022/09/18 10:15:32;;;;;;;3.33;1.73;;;;;;;;;;5033201;28;20212;-71
2022/09/18 10:18:01;;;;;;;4.77;1.83;;;;;;;;;;5032951;28;20434;-71
2022/09/18 10:20:32;;;;;;;5.70;1.60;;;;;;;;;;5032732;28;20444;-72
2022/09/18 10:23:02;;;;;;;1.67;1.50;;;;;;;;;;5033250;28;20421;-71
2022/09/18 10:25:31;;;;;;;4.20;1.60;;;;;;;;;;5032931;28;20494;-72
2022/09/18 10:27:58;;;;;;;4.97;1.67;;;;;;;;;;5033017;28;20525;-72
2022/09/18 10:30:25;;;;;;;2.27;1.50;;;;;;;;;;5034909;28;20453;-72
2022/09/18 10:32:53;;;;;;;1.70;1.60;;;;;;;;;;5036719;28;20541;-72
2022/09/18 10:35:31;;;;;;;1.90;1.70;;;;;;;;;;5036733;28;20442;-72
2022/09/18 10:38:00;;;;;;;3.73;1.67;;;;;;;;;;5035543;28;20461;-72
2022/09/18 10:40:31;;;;;;;4.63;2.13;;;;;;;;;;5036277;28;20449;-71
2022/09/18 10:42:59;;;;;;;2.60;1.43;;;;;;;;;;5035804;28;20451;-71
2022/09/18 10:45:27;;;;;;;4.33;2.00;;;;;;;;;;5035681;28;20478;-70
2022/09/18 10:48:04;;;;;;;2.10;1.50;;;;;;;;;;5036141;28;20460;-71
2022/09/18 10:50:31;;;;;;;1.97;1.50;;;;;;;;;;5036051;28;20915;-71
2022/09/18 10:53:15;;;;;;;3.20;1.67;;;;;;;;;;5035988;28;20456;-71
2022/09/18 10:55:48;;;;;;;2.10;1.70;;;;;;;;;;5036198;28;20971;-71
2022/09/18 10:58:16;;;;;;;1.70;1.40;;;;;;;;;;5036275;28;20431;-71
2022/09/18 11:00:47;;;;;;;2.33;1.63;;;;;;;;;;5036011;28;20482;-71
2022/09/18 11:03:20;;;;;;;1.67;1.57;;;;;;;;;;5036085;28;20484;-70
2022/09/18 11:05:50;;;;;;;5.27;2.33;;;;;;;;;;5035623;28;20441;-70
2022/09/18 11:08:19;;;;;;;8.27;1.73;;;;;;;;;;5035883;28;20529;-70
2022/09/18 11:10:49;;;;;;;2.17;1.83;;;;;;;;;;5035663;28;20444;-70
2022/09/18 11:13:20;;;;;;;2.00;1.60;;;;;;;;;;5036182;28;21006;-69
2022/09/18 11:15:52;;;;;;;6.90;2.97;;;;;;;;;;5036026;28;20915;-70
2022/09/18 11:18:19;;;;;;;2.23;1.60;;;;;;;;;;5036212;28;20435;-70
2022/09/18 11:20:47;;;;;;;3.73;1.80;;;;;;;;;;5035874;28;20451;-70
2022/09/18 11:23:25;;;;;;;1.70;1.60;;;;;;;;;;5035373;28;20499;-70
2022/09/18 11:26:09;;;;;;;3.80;2.70;;;;;;;;;;5035139;28;20462;-70
2022/09/18 11:28:36;;;;;;;3.22;2.28;;;;;;;;;;5035665;28;20442;-70
2022/09/18 11:31:06;;;;;;;5.30;1.80;;;;;;;;;;5035758;28;20255;-70
2022/09/18 11:33:34;;;;;;;3.17;2.23;;;;;;;;;;5035640;28;20443;-70
2022/09/18 11:36:02;;;;;;;2.87;2.20;;;;;;;;;;5035559;28;20537;-70
2022/09/18 11:38:32;;;;;;;4.90;2.50;;;;;;;;;;5035120;28;20530;-70
2022/09/18 11:41:00;;;;;;;4.03;2.40;;;;;;;;;;5034200;28;20442;-71
2022/09/18 11:43:29;;;;;;;6.87;2.10;;;;;;;;;;5034884;28;20444;-71
2022/09/18 11:46:00;;;;;;;2.00;1.70;;;;;;;;;;5034966;28;20533;-71
2022/09/18 11:48:30;;;;;;;2.07;1.83;;;;;;;;;;5035586;28;20431;-71
2022/09/18 11:50:58;;;;;;;5.67;2.27;;;;;;;;;;5035141;28;20450;-70
2022/09/18 11:53:26;;;;;;;4.43;2.03;;;;;;;;;;5034852;28;20442;-70
2022/09/18 11:55:58;;;;;;;6.90;2.00;;;;;;;;;;5035118;28;20444;-71
2022/09/18 11:58:28;;;;;;;2.00;1.67;;;;;;;;;;5035416;28;20452;-71
2022/09/18 12:00:59;;;;;;;6.43;2.03;;;;;;;;;;5034721;28;20526;-71
2022/09/18 12:03:30;;;;;;;1.80;1.63;;;;;;;;;;5034813;28;20437;-71
2022/09/18 12:05:59;;;;;;;2.23;1.93;;;;;;;;;;5034409;28;20871;-71
2022/09/18 12:08:34;;;;;;;2.23;2.03;;;;;;;;;;5034215;28;20455;-71
2022/09/18 12:11:08;;;;;;;5.73;1.93;;;;;;;;;;5034845;28;20438;-72
2022/09/18 12:13:45;;;;;;;2.27;1.53;;;;;;;;;;5035239;28;20454;-71
2022/09/18 12:16:15;;;;;;;3.20;1.47;;;;;;;;;;5034829;28;20450;-72
2022/09/18 12:18:47;;;;;;;1.67;1.40;;;;;;;;;;5034669;28;20938;-73
2022/09/18 12:21:17;;;;;;;5.43;1.83;;;;;;;;;;5034836;28;20437;-73
2022/09/18 12:23:44;;;;;;;3.90;1.53;;;;;;;;;;5034609;28;20805;-73
2022/09/18 12:26:15;;;;;;;5.07;1.43;;;;;;;;;;5033755;28;20512;-74
2022/09/18 12:28:45;;;;;;;6.30;1.60;;;;;;;;;;5034530;28;20445;-74
2022/09/18 12:31:14;;;;;;;7.80;1.63;;;;;;;;;;5034382;28;20488;-74
2022/09/18 12:33:46;;;;;;;6.40;1.67;;;;;;;;;;5034104;28;20602;-73
2022/09/18 12:36:37;;;;;;;3.93;1.43;;;;;;;;;;5034215;28;20439;-73
2022/09/18 12:39:10;;;;;;;1.67;1.57;;;;;;;;;;5034386;28;21072;-73
2022/09/18 12:41:48;;;;;;;3.70;1.93;;;;;;;;;;5034612;28;20458;-73
2022/09/18 12:44:39;;;;;;;3.20;1.50;;;;;;;;;;5034221;28;20493;-73
2022/09/18 12:47:12;;;;;;;5.83;1.60;;;;;;;;;;5018923;28;20457;-73
2022/09/18 12:49:46;;;;;;;2.03;1.50;;;;;;;;;;5033166;28;20431;-72
2022/09/18 12:52:22;;;;;;;5.32;1.42;;;;;;;;;;5033389;28;20436;-73
2022/09/18 12:54:58;;;;;;;5.22;1.55;;;;;;;;;;5034557;28;20281;-73
2022/09/18 12:57:33;;;;;;;2.60;1.73;;;;;;;;;;5034286;28;20188;-74
2022/09/18 13:00:03;;;;;;;1.93;1.80;;;;;;;;;;5033714;28;20430;-73
2022/09/18 13:02:37;;;;;;;4.25;1.70;;;;;;;;;;5033718;28;20469;-73
2022/09/18 13:05:08;;;;;;;3.50;1.53;;;;;;;;;;5034097;28;20211;-74
2022/09/18 13:07:38;;;;;;;3.50;1.30;;;;;;;;;;5033279;28;20884;-74
2022/09/18 13:10:08;;;;;;;1.70;1.60;;;;;;;;;;5033870;28;20547;-73
2022/09/18 13:12:39;;;;;;;2.13;1.60;;;;;;;;;;5033799;28;20199;-73
2022/09/18 13:15:11;;;;;;;1.77;1.33;;;;;;;;;;5033848;28;20454;-72
2022/09/18 13:17:41;;;;;;;3.60;1.70;;;;;;;;;;5033721;28;20509;-72
2022/09/18 13:20:14;;;;;;;3.47;1.40;;;;;;;;;;5033295;28;20438;-71
2022/09/18 13:22:43;;;;;;;4.47;1.57;;;;;;;;;;5033410;28;20442;-70
2022/09/18 13:25:18;;;;;;;1.33;1.23;;;;;;;;;;5033307;28;20532;-71
2022/09/18 13:27:46;;;;;;;3.43;1.63;;;;;;;;;;5033462;28;20469;-68
2022/09/18 13:30:16;;;;;;;6.23;1.40;;;;;;;;;;5033398;28;20962;-70
2022/09/18 13:32:43;;;;;;;4.83;1.60;;;;;;;;;;5033614;28;20479;-70
2022/09/18 13:35:24;;;;;;;11.17;1.80;;;;;;;;;;5033546;28;20446;-70
2022/09/18 13:38:04;;;;;;;3.47;1.83;;;;;;;;;;5033299;28;20442;-70
2022/09/18 13:40:34;;;;;;;4.67;2.17;;;;;;;;;;5033562;28;20524;-70
2022/09/18 13:43:15;;;;;;;4.87;1.73;;;;;;;;;;5033834;28;20427;-70
2022/09/18 13:45:42;;;;;;;2.80;1.50;;;;;;;;;;5033243;28;20985;-70
2022/09/18 13:48:16;;;;;;;1.60;1.50;;;;;;;;;;5033005;28;20936;-70
2022/09/18 13:50:49;;;;;;;3.03;1.43;;;;;;;;;;5033544;28;20426;-71
2022/09/18 13:53:32;;;;;;;1.57;1.40;;;;;;;;;;5033461;28;20426;-70
2022/09/18 13:56:00;;;;;;;1.43;1.33;;;;;;;;;;5024770;28;20461;-70
2022/09/18 13:58:46;;;;;;;4.23;1.77;;;;;;;;;;5013212;28;20922;-70
2022/09/18 14:01:35;;;;;;;2.70;1.60;;;;;;;;;;5007135;28;20944;-70
2022/09/18 14:04:02;;;;;;;7.67;1.50;;;;;;;;;;5013765;28;20836;-70
2022/09/18 14:06:42;;;;;;;1.70;1.33;;;;;;;;;;5017071;28;20475;-70
2022/09/18 14:09:27;;;;;;;2.60;1.53;;;;;;;;;;5017403;28;20812;-70
2022/09/18 14:11:54;;;;;;;3.90;1.30;;;;;;;;;;5017886;28;20438;-70
2022/09/18 14:14:23;;;;;;;6.17;1.43;;;;;;;;;;5017127;28;20453;-71
2022/09/18 14:16:52;;;;;;;1.63;1.30;;;;;;;;;;5016838;28;20497;-70
2022/09/18 14:19:33;;;;;;;3.00;1.73;;;;;;;;;;5016841;28;20447;-70
2022/09/18 14:22:00;;;;;;;2.17;1.57;;;;;;;;;;5016986;28;20945;-70
2022/09/18 14:24:55;;;;;;;3.00;2.10;;;;;;;;;;5016864;28;20443;-71
2022/09/18 14:27:34;;;;;;;2.30;1.27;;;;;;;;;;5017166;28;20510;-70
2022/09/18 14:30:07;;;;;;;4.17;2.70;;;;;;;;;;5016584;28;20920;-70
2022/09/18 14:32:36;;;;;;;2.30;1.37;;;;;;;;;;5016297;28;20478;-70
2022/09/18 14:35:30;;;;;;;8.17;1.73;;;;;;;;;;5016887;28;20462;-70
2022/09/18 14:37:57;;;;;;;3.63;1.40;;;;;;;;;;4992877;28;20450;-70
2022/09/18 14:40:26;;;;;;;3.03;2.03;;;;;;;;;;5016810;28;20436;-70
2022/09/18 14:42:54;;;;;;;6.30;1.93;;;;;;;;;;5016887;28;20447;-70
2022/09/18 14:45:31;;;;;;;5.83;2.03;;;;;;;;;;5016330;28;20475;-69
2022/09/18 14:48:00;;;;;;;3.17;1.50;;;;;;;;;;5016645;28;20427;-69
2022/09/18 14:50:28;;;;;;;4.00;1.60;;;;;;;;;;5016276;28;20538;-69
2022/09/18 14:52:56;;;;;;;8.63;2.27;;;;;;;;;;5016184;28;20956;-70
2022/09/18 14:55:26;;;;;;;3.40;1.90;;;;;;;;;;5016219;28;20443;-69
2022/09/18 14:57:56;;;;;;;3.07;1.60;;;;;;;;;;5016698;28;20434;-69
2022/09/18 15:00:25;;;;;;;4.73;1.90;;;;;;;;;;5031463;28;20456;-69